Time;durP1;ratioP1;P1;durP2;ratioP2;P2;SDS_P1;SDS_P2;PMS_P1;PMS_P2;Temp;Humidity;BMP_temperature;BMP_pressure;BME280_temperature;BME280_humidity;BME280_pressure;Samples;Min_cycle;Max_cycle;Signal;HPM_P1;HPM_P2
2021/05/05 00:01:19;;;;;;;5.65;1.38;;;;;;;;;;4881154;29;20036;-58
2021/05/05 00:03:44;;;;;;;2.42;1.10;;;;;;;;;;4895324;29;20518;-58
2021/05/05 00:06:12;;;;;;;4.28;1.20;;;;;;;;;;4893087;29;20040;-58
2021/05/05 00:08:38;;;;;;;5.85;1.55;;;;;;;;;;4892682;28;20636;-56
2021/05/05 00:11:03;;;;;;;3.70;1.42;;;;;;;;;;4893061;28;20040;-57
2021/05/05 00:13:29;;;;;;;5.60;1.30;;;;;;;;;;4893772;28;20059;-58
2021/05/05 00:15:55;;;;;;;5.18;1.17;;;;;;;;;;4884075;29;20047;-58
2021/05/05 00:18:21;;;;;;;5.55;2.15;;;;;;;;;;4881394;29;20935;-57
2021/05/05 00:20:47;;;;;;;6.35;1.30;;;;;;;;;;4890270;29;20079;-58
2021/05/05 00:23:13;;;;;;;4.00;1.40;;;;;;;;;;4892407;28;20092;-56
2021/05/05 00:25:39;;;;;;;3.88;1.20;;;;;;;;;;4894968;28;20070;-55
2021/05/05 00:28:05;;;;;;;3.75;1.40;;;;;;;;;;4895725;29;20047;-58
2021/05/05 00:30:30;;;;;;;5.35;1.25;;;;;;;;;;4896412;28;20044;-57
2021/05/05 00:32:56;;;;;;;2.72;1.00;;;;;;;;;;4904298;29;20051;-56
2021/05/05 00:35:22;;;;;;;5.47;1.80;;;;;;;;;;4904860;28;20139;-58
2021/05/05 00:37:48;;;;;;;2.85;1.10;;;;;;;;;;4958677;28;20035;-56
2021/05/05 00:40:14;;;;;;;4.78;1.05;;;;;;;;;;4958313;28;20046;-57
2021/05/05 00:42:41;;;;;;;4.10;0.85;;;;;;;;;;4954205;28;20055;-59
2021/05/05 00:45:11;;;;;;;3.53;0.80;;;;;;;;;;4958462;28;20038;-57
2021/05/05 00:47:37;;;;;;;1.85;0.68;;;;;;;;;;4958043;28;20353;-57
2021/05/05 00:50:04;;;;;;;2.45;0.80;;;;;;;;;;4948815;28;20046;-57
2021/05/05 00:52:29;;;;;;;3.47;0.70;;;;;;;;;;4952872;28;20455;-58
2021/05/05 00:54:56;;;;;;;3.25;0.80;;;;;;;;;;4956788;28;20043;-58
2021/05/05 00:57:22;;;;;;;3.17;0.95;;;;;;;;;;4954527;28;20118;-57
2021/05/05 00:59:48;;;;;;;2.60;0.90;;;;;;;;;;4956471;28;20047;-58
2021/05/05 01:02:14;;;;;;;2.60;0.90;;;;;;;;;;4956576;28;20050;-58
2021/05/05 01:04:40;;;;;;;2.35;0.80;;;;;;;;;;4957089;28;20142;-57
2021/05/05 01:07:07;;;;;;;2.13;0.80;;;;;;;;;;4954823;28;20404;-58
2021/05/05 01:09:32;;;;;;;2.78;1.00;;;;;;;;;;4929997;28;20045;-57
2021/05/05 01:11:58;;;;;;;2.30;0.75;;;;;;;;;;4941287;28;20039;-60
2021/05/05 01:14:24;;;;;;;2.30;0.70;;;;;;;;;;4955833;28;20046;-58
2021/05/05 01:16:51;;;;;;;1.85;0.70;;;;;;;;;;4957276;28;20109;-56
2021/05/05 01:19:17;;;;;;;2.17;0.70;;;;;;;;;;4957324;28;20122;-56
2021/05/05 01:21:43;;;;;;;2.10;0.77;;;;;;;;;;4958585;28;20825;-56
2021/05/05 01:24:09;;;;;;;3.08;0.70;;;;;;;;;;4957800;28;20051;-57
2021/05/05 01:26:35;;;;;;;2.75;0.60;;;;;;;;;;4938834;28;20824;-55
2021/05/05 01:29:01;;;;;;;2.78;0.80;;;;;;;;;;4937584;28;20042;-57
2021/05/05 01:31:27;;;;;;;2.88;1.00;;;;;;;;;;4958364;28;20057;-59
2021/05/05 01:33:54;;;;;;;3.15;0.80;;;;;;;;;;4958626;28;20055;-57
2021/05/05 01:36:20;;;;;;;2.10;0.65;;;;;;;;;;4957601;28;20045;-56
2021/05/05 01:38:47;;;;;;;2.38;0.80;;;;;;;;;;4959244;28;20074;-58
2021/05/05 01:41:13;;;;;;;4.40;0.52;;;;;;;;;;4957349;28;20050;-56
2021/05/05 01:43:39;;;;;;;2.17;0.68;;;;;;;;;;4956630;28;20111;-57
2021/05/05 01:46:05;;;;;;;2.53;0.68;;;;;;;;;;4954965;28;20514;-58
2021/05/05 01:48:31;;;;;;;1.35;0.50;;;;;;;;;;4951690;28;21376;-59
2021/05/05 01:50:56;;;;;;;2.22;0.50;;;;;;;;;;4957399;28;20050;-58
2021/05/05 01:53:22;;;;;;;2.22;0.65;;;;;;;;;;4957274;28;20489;-59
2021/05/05 01:55:48;;;;;;;3.72;0.60;;;;;;;;;;4956131;28;20077;-58
2021/05/05 01:58:14;;;;;;;2.00;0.63;;;;;;;;;;4955359;28;20049;-59
2021/05/05 02:00:41;;;;;;;2.08;0.60;;;;;;;;;;4955294;28;20059;-57
2021/05/05 02:03:07;;;;;;;2.70;0.80;;;;;;;;;;4956027;28;20054;-57
2021/05/05 02:05:33;;;;;;;3.10;0.77;;;;;;;;;;4955505;28;20448;-54
2021/05/05 02:07:59;;;;;;;2.60;0.70;;;;;;;;;;4952313;28;20050;-57
2021/05/05 02:10:25;;;;;;;3.83;0.65;;;;;;;;;;4955425;28;20859;-57
2021/05/05 02:12:52;;;;;;;2.17;0.70;;;;;;;;;;4955023;28;20057;-57
2021/05/05 02:15:22;;;;;;;3.42;0.80;;;;;;;;;;4954316;28;20034;-57
2021/05/05 02:17:49;;;;;;;2.53;0.80;;;;;;;;;;4954130;28;20096;-58
2021/05/05 02:20:17;;;;;;;2.78;0.80;;;;;;;;;;4956341;28;20049;-59
2021/05/05 02:22:43;;;;;;;2.60;0.70;;;;;;;;;;4953109;28;20038;-58
2021/05/05 02:25:09;;;;;;;2.72;0.57;;;;;;;;;;4957720;28;20046;-57
2021/05/05 02:27:35;;;;;;;3.20;0.68;;;;;;;;;;4927056;28;20077;-57
2021/05/05 02:30:02;;;;;;;4.68;0.77;;;;;;;;;;4953701;28;20047;-58
2021/05/05 02:32:28;;;;;;;2.35;0.80;;;;;;;;;;4953010;28;20832;-55
2021/05/05 02:34:57;;;;;;;2.50;0.60;;;;;;;;;;4952763;28;20161;-55
2021/05/05 02:37:23;;;;;;;3.20;0.68;;;;;;;;;;4953457;28;20797;-56
2021/05/05 02:39:49;;;;;;;2.10;0.80;;;;;;;;;;4953007;28;20061;-57
2021/05/05 02:42:16;;;;;;;2.53;0.60;;;;;;;;;;4952540;28;20894;-58
2021/05/05 02:44:44;;;;;;;3.15;0.82;;;;;;;;;;4952858;28;20548;-58
2021/05/05 02:47:11;;;;;;;3.72;0.90;;;;;;;;;;4952965;28;20069;-57
2021/05/05 02:49:36;;;;;;;2.60;0.80;;;;;;;;;;4953331;28;20047;-58
2021/05/05 02:52:03;;;;;;;2.72;0.90;;;;;;;;;;4958035;28;20056;-58
2021/05/05 02:54:29;;;;;;;2.22;0.75;;;;;;;;;;4953260;28;20409;-57
2021/05/05 02:56:55;;;;;;;2.60;0.80;;;;;;;;;;4951254;28;20089;-58
2021/05/05 02:59:21;;;;;;;2.00;0.75;;;;;;;;;;4954156;28;20489;-56
2021/05/05 03:01:47;;;;;;;3.25;0.70;;;;;;;;;;4955164;28;20093;-58
2021/05/05 03:04:13;;;;;;;2.40;0.80;;;;;;;;;;4953707;28;20524;-58
2021/05/05 03:06:38;;;;;;;3.10;0.80;;;;;;;;;;4954921;28;20736;-58
2021/05/05 03:09:05;;;;;;;2.70;1.00;;;;;;;;;;4953461;28;20050;-57
2021/05/05 03:11:31;;;;;;;3.20;0.88;;;;;;;;;;4950656;28;20042;-57
2021/05/05 03:13:56;;;;;;;3.40;0.80;;;;;;;;;;4957091;28;20042;-58
2021/05/05 03:16:23;;;;;;;2.53;0.80;;;;;;;;;;4951479;28;20047;-56
2021/05/05 03:18:49;;;;;;;3.00;0.90;;;;;;;;;;4955519;28;20591;-58
2021/05/05 03:21:14;;;;;;;3.60;1.13;;;;;;;;;;4956068;28;20039;-58
2021/05/05 03:23:40;;;;;;;4.15;1.00;;;;;;;;;;4951981;28;20595;-58
2021/05/05 03:26:06;;;;;;;5.90;1.10;;;;;;;;;;4954723;28;20042;-58
2021/05/05 03:28:32;;;;;;;3.08;1.08;;;;;;;;;;4954764;28;20438;-58
2021/05/05 03:30:58;;;;;;;2.90;1.30;;;;;;;;;;4953175;28;20047;-57
2021/05/05 03:33:23;;;;;;;2.30;0.85;;;;;;;;;;4955227;28;20504;-57
2021/05/05 03:35:49;;;;;;;3.40;1.00;;;;;;;;;;4953774;28;20054;-57
2021/05/05 03:38:15;;;;;;;3.10;1.10;;;;;;;;;;4954755;28;20049;-57
2021/05/05 03:40:41;;;;;;;2.95;0.90;;;;;;;;;;4955199;28;20790;-58
2021/05/05 03:43:07;;;;;;;4.00;1.25;;;;;;;;;;4952242;28;20055;-58
2021/05/05 03:45:32;;;;;;;3.58;1.13;;;;;;;;;;4951856;28;20042;-59
2021/05/05 03:47:58;;;;;;;4.82;1.30;;;;;;;;;;4953565;28;20436;-58
2021/05/05 03:50:24;;;;;;;4.65;1.27;;;;;;;;;;4952829;28;20049;-58
2021/05/05 03:52:50;;;;;;;3.42;1.20;;;;;;;;;;4951914;28;20043;-59
2021/05/05 03:55:16;;;;;;;3.90;1.50;;;;;;;;;;4954466;28;20136;-56
2021/05/05 03:57:42;;;;;;;2.92;1.10;;;;;;;;;;4952927;28;20143;-57
2021/05/05 04:00:09;;;;;;;3.53;1.20;;;;;;;;;;4954240;28;20141;-58
2021/05/05 04:02:34;;;;;;;3.05;1.17;;;;;;;;;;4953206;28;20198;-59
2021/05/05 04:05:02;;;;;;;4.75;1.70;;;;;;;;;;4952550;28;20055;-58
2021/05/05 04:07:27;;;;;;;3.17;1.17;;;;;;;;;;4954998;28;20042;-59
2021/05/05 04:09:55;;;;;;;3.83;1.27;;;;;;;;;;4960129;28;20113;-58
2021/05/05 04:12:21;;;;;;;3.72;1.42;;;;;;;;;;4946748;28;20038;-58
2021/05/05 04:14:47;;;;;;;3.38;1.40;;;;;;;;;;4957281;28;20151;-55
2021/05/05 04:17:13;;;;;;;3.75;1.60;;;;;;;;;;4956168;28;20106;-58
2021/05/05 04:19:39;;;;;;;3.67;1.48;;;;;;;;;;4956798;28;21042;-59
2021/05/05 04:22:05;;;;;;;3.47;1.33;;;;;;;;;;4959756;28;20035;-59
2021/05/05 04:24:31;;;;;;;5.72;1.67;;;;;;;;;;4957824;28;20121;-58
2021/05/05 04:26:57;;;;;;;3.85;1.70;;;;;;;;;;4960831;28;20039;-58
2021/05/05 04:29:22;;;;;;;4.63;1.60;;;;;;;;;;4957349;28;20926;-58
2021/05/05 04:31:51;;;;;;;4.15;1.60;;;;;;;;;;4952182;28;22188;-58
2021/05/05 04:34:17;;;;;;;4.20;1.40;;;;;;;;;;4956839;28;20067;-57
2021/05/05 04:36:43;;;;;;;4.32;1.80;;;;;;;;;;4958947;28;20046;-58
2021/05/05 04:39:09;;;;;;;2.90;1.17;;;;;;;;;;4962890;28;20035;-58
2021/05/05 04:41:35;;;;;;;3.67;1.45;;;;;;;;;;4961068;28;20069;-58
2021/05/05 04:44:01;;;;;;;5.68;1.60;;;;;;;;;;4959982;28;20125;-58
2021/05/05 04:46:27;;;;;;;3.97;1.55;;;;;;;;;;4958606;28;20038;-58
2021/05/05 04:48:53;;;;;;;3.47;1.40;;;;;;;;;;4953344;28;20046;-58
2021/05/05 04:51:18;;;;;;;3.30;1.52;;;;;;;;;;4938480;28;20082;-57
2021/05/05 04:53:44;;;;;;;3.75;1.67;;;;;;;;;;4964170;28;20653;-57
2021/05/05 04:56:10;;;;;;;3.75;1.60;;;;;;;;;;4963872;28;20050;-57
2021/05/05 04:58:36;;;;;;;3.70;1.63;;;;;;;;;;4960661;28;20045;-58
2021/05/05 05:01:02;;;;;;;4.03;1.52;;;;;;;;;;4962749;28;20124;-56
2021/05/05 05:03:28;;;;;;;3.75;1.50;;;;;;;;;;4962808;28;20136;-56
2021/05/05 05:05:54;;;;;;;3.40;1.48;;;;;;;;;;4959723;28;20151;-57
2021/05/05 05:08:20;;;;;;;4.90;1.58;;;;;;;;;;4956925;28;20054;-57
2021/05/05 05:10:45;;;;;;;4.60;1.52;;;;;;;;;;4957627;28;20046;-58
2021/05/05 05:13:11;;;;;;;6.25;1.80;;;;;;;;;;4957020;28;20039;-58
2021/05/05 05:15:37;;;;;;;4.43;1.70;;;;;;;;;;4957717;28;20051;-57
2021/05/05 05:18:03;;;;;;;3.75;1.80;;;;;;;;;;4952647;28;20203;-58
2021/05/05 05:20:29;;;;;;;3.47;1.50;;;;;;;;;;4953956;28;20135;-59
2021/05/05 05:22:55;;;;;;;3.47;1.50;;;;;;;;;;4959047;28;20047;-58
2021/05/05 05:25:22;;;;;;;3.25;1.63;;;;;;;;;;4956565;28;20049;-55
2021/05/05 05:27:48;;;;;;;3.45;1.52;;;;;;;;;;4953975;28;20043;-59
2021/05/05 05:30:15;;;;;;;4.13;1.60;;;;;;;;;;4954041;28;20771;-57
2021/05/05 05:32:40;;;;;;;4.72;1.60;;;;;;;;;;4953823;28;20126;-57
2021/05/05 05:35:06;;;;;;;3.50;1.60;;;;;;;;;;4952802;28;20838;-56
2021/05/05 05:37:32;;;;;;;3.72;1.58;;;;;;;;;;4955775;28;20053;-58
2021/05/05 05:39:58;;;;;;;3.95;1.50;;;;;;;;;;4956549;28;20046;-57
2021/05/05 05:42:24;;;;;;;3.80;1.40;;;;;;;;;;4955494;28;20034;-58
2021/05/05 05:44:50;;;;;;;4.25;1.83;;;;;;;;;;4954910;28;20087;-57
2021/05/05 05:47:16;;;;;;;3.30;1.42;;;;;;;;;;4947402;28;20077;-58
2021/05/05 05:49:41;;;;;;;5.80;1.20;;;;;;;;;;4930953;28;20050;-56
2021/05/05 05:52:07;;;;;;;2.78;1.20;;;;;;;;;;4958041;28;20086;-57
2021/05/05 05:54:33;;;;;;;3.20;1.15;;;;;;;;;;4953700;28;20043;-57
2021/05/05 05:56:59;;;;;;;2.58;0.80;;;;;;;;;;4955587;28;20038;-57
2021/05/05 05:59:25;;;;;;;3.97;0.80;;;;;;;;;;4953782;28;20066;-58
2021/05/05 06:07:56;;;;;;;2.30;0.80;;;;;;;;;;4942729;28;22085;-57
2021/05/05 06:10:22;;;;;;;2.45;0.80;;;;;;;;;;4954933;28;20038;-57
2021/05/05 06:12:48;;;;;;;3.53;1.00;;;;;;;;;;4945022;28;20047;-54
2021/05/05 06:15:14;;;;;;;3.67;1.00;;;;;;;;;;4945912;28;20035;-58
2021/05/05 06:17:40;;;;;;;2.80;0.90;;;;;;;;;;4934993;28;20050;-57
2021/05/05 06:20:06;;;;;;;2.83;0.90;;;;;;;;;;4935992;28;20062;-56
2021/05/05 06:22:32;;;;;;;3.40;0.98;;;;;;;;;;4940333;28;20042;-58
2021/05/05 06:24:57;;;;;;;2.50;0.90;;;;;;;;;;4938836;28;20066;-57
2021/05/05 06:27:23;;;;;;;3.55;1.17;;;;;;;;;;4938981;28;20039;-58
2021/05/05 06:29:49;;;;;;;4.88;1.25;;;;;;;;;;4938715;28;20066;-57
2021/05/05 06:32:15;;;;;;;2.85;1.10;;;;;;;;;;4937409;28;20095;-58
2021/05/05 06:34:41;;;;;;;5.68;0.90;;;;;;;;;;4937231;28;20052;-57
2021/05/05 06:37:07;;;;;;;3.05;1.00;;;;;;;;;;4942460;28;20408;-57
2021/05/05 06:39:33;;;;;;;2.70;1.00;;;;;;;;;;4935723;28;20074;-57
2021/05/05 06:41:59;;;;;;;2.80;1.00;;;;;;;;;;4938714;28;20899;-58
2021/05/05 06:44:25;;;;;;;2.80;1.00;;;;;;;;;;4935815;28;20370;-58
2021/05/05 06:46:54;;;;;;;3.95;1.02;;;;;;;;;;4935023;28;20042;-58
2021/05/05 06:49:21;;;;;;;2.60;0.90;;;;;;;;;;4935228;28;20730;-57
2021/05/05 06:51:46;;;;;;;3.65;0.90;;;;;;;;;;4937615;28;20027;-57
2021/05/05 06:54:12;;;;;;;3.33;1.00;;;;;;;;;;4934402;28;20061;-57
2021/05/05 06:56:38;;;;;;;2.55;1.00;;;;;;;;;;4934302;28;20248;-55
2021/05/05 06:59:04;;;;;;;2.75;0.90;;;;;;;;;;4934511;28;20065;-57
2021/05/05 07:01:30;;;;;;;2.80;1.00;;;;;;;;;;4932563;28;20050;-57
2021/05/05 07:03:55;;;;;;;2.72;1.05;;;;;;;;;;4934927;28;20055;-59
2021/05/05 07:06:21;;;;;;;2.78;0.90;;;;;;;;;;4933229;28;20051;-58
2021/05/05 07:08:47;;;;;;;2.75;0.98;;;;;;;;;;4934173;28;20253;-58
2021/05/05 07:11:13;;;;;;;2.90;0.90;;;;;;;;;;4933905;28;20074;-58
2021/05/05 07:13:38;;;;;;;2.65;0.80;;;;;;;;;;4932915;28;22272;-58
2021/05/05 07:16:04;;;;;;;2.28;0.80;;;;;;;;;;4934098;28;20046;-58
2021/05/05 07:18:30;;;;;;;2.92;1.00;;;;;;;;;;4934538;28;20037;-58
2021/05/05 07:20:58;;;;;;;2.63;1.00;;;;;;;;;;4936374;28;20146;-57
2021/05/05 07:23:24;;;;;;;3.42;1.10;;;;;;;;;;4933152;28;20090;-58
2021/05/05 07:25:49;;;;;;;2.50;0.98;;;;;;;;;;4944544;28;20573;-58
2021/05/05 07:28:15;;;;;;;2.50;1.00;;;;;;;;;;4935772;28;20067;-58
2021/05/05 07:30:41;;;;;;;4.45;1.02;;;;;;;;;;4934830;28;20035;-57
2021/05/05 07:33:07;;;;;;;2.53;0.88;;;;;;;;;;4936038;28;20061;-57
2021/05/05 07:35:33;;;;;;;2.28;0.80;;;;;;;;;;4932472;28;20031;-57
2021/05/05 07:48:22;;;;;;;4.72;1.00;;;;;;;;;;4941933;28;20158;-57
2021/05/05 07:50:48;;;;;;;2.25;0.90;;;;;;;;;;4939057;28;20070;-58
2021/05/05 07:53:14;;;;;;;2.78;1.05;;;;;;;;;;4939576;28;21852;-58
2021/05/05 07:55:40;;;;;;;2.47;0.90;;;;;;;;;;4936055;28;20039;-58
2021/05/05 07:58:06;;;;;;;2.60;0.90;;;;;;;;;;4941360;28;20157;-57
2021/05/05 08:00:32;;;;;;;2.50;0.88;;;;;;;;;;4938431;28;20043;-57
2021/05/05 08:02:58;;;;;;;2.60;1.00;;;;;;;;;;4935941;28;20047;-58
2021/05/05 08:05:24;;;;;;;2.17;0.80;;;;;;;;;;4938565;28;20047;-57
2021/05/05 08:07:53;;;;;;;2.70;1.00;;;;;;;;;;4939987;28;20050;-62
2021/05/05 08:10:19;;;;;;;4.47;1.00;;;;;;;;;;4940836;28;21140;-58
2021/05/05 08:12:45;;;;;;;2.20;0.65;;;;;;;;;;4938525;28;20039;-57
2021/05/05 08:15:11;;;;;;;2.60;0.90;;;;;;;;;;4947512;28;20548;-58
2021/05/05 08:17:37;;;;;;;2.92;0.95;;;;;;;;;;4940230;28;20679;-58
2021/05/05 08:20:04;;;;;;;2.05;0.70;;;;;;;;;;4940826;28;20053;-58
2021/05/05 08:22:29;;;;;;;2.50;0.80;;;;;;;;;;4938625;28;20042;-57
2021/05/05 08:24:55;;;;;;;2.08;0.70;;;;;;;;;;4938717;28;20054;-58
2021/05/05 08:27:22;;;;;;;2.50;0.88;;;;;;;;;;4939636;28;20035;-58
2021/05/05 08:29:48;;;;;;;2.50;0.82;;;;;;;;;;4941920;28;20043;-56
2021/05/05 08:32:14;;;;;;;2.15;0.80;;;;;;;;;;4939406;28;20054;-57
2021/05/05 08:34:40;;;;;;;2.00;0.70;;;;;;;;;;4938626;28;20437;-56
2021/05/05 08:37:06;;;;;;;2.30;0.70;;;;;;;;;;4942535;28;20063;-58
2021/05/05 08:39:31;;;;;;;2.97;0.60;;;;;;;;;;4940345;28;20039;-58
2021/05/05 08:41:58;;;;;;;2.15;0.60;;;;;;;;;;4939136;28;20623;-56
2021/05/05 08:44:24;;;;;;;2.10;0.60;;;;;;;;;;4939571;28;20507;-57
2021/05/05 08:46:50;;;;;;;2.13;0.55;;;;;;;;;;4943231;28;20113;-57
2021/05/05 08:49:16;;;;;;;2.25;0.70;;;;;;;;;;4939604;28;20047;-53
2021/05/05 08:51:43;;;;;;;2.15;0.70;;;;;;;;;;4937330;28;20038;-56
2021/05/05 08:54:09;;;;;;;1.92;0.70;;;;;;;;;;4940418;28;20051;-56
2021/05/05 08:56:36;;;;;;;2.42;0.80;;;;;;;;;;4940003;28;20114;-57
2021/05/05 08:59:05;;;;;;;3.17;0.70;;;;;;;;;;4940305;28;20062;-55
2021/05/05 09:01:32;;;;;;;2.03;0.70;;;;;;;;;;4937169;28;20134;-56
2021/05/05 09:03:58;;;;;;;2.03;0.70;;;;;;;;;;4938786;28;20052;-56
2021/05/05 09:06:43;;;;;;;2.35;0.60;;;;;;;;;;4940239;28;20097;-57
2021/05/05 09:09:09;;;;;;;3.15;0.80;;;;;;;;;;4937471;28;20035;-56
2021/05/05 09:11:44;;;;;;;2.50;0.90;;;;;;;;;;4937798;28;20410;-57
2021/05/05 09:14:11;;;;;;;2.28;0.70;;;;;;;;;;4938783;28;20968;-57
2021/05/05 09:16:36;;;;;;;2.05;0.63;;;;;;;;;;4937006;28;20478;-56
2021/05/05 09:19:06;;;;;;;2.10;0.65;;;;;;;;;;4938947;28;20497;-53
2021/05/05 09:21:35;;;;;;;2.03;0.70;;;;;;;;;;4938225;28;20047;-57
2021/05/05 09:24:21;;;;;;;2.97;0.60;;;;;;;;;;4936912;28;20129;-57
2021/05/05 09:27:07;;;;;;;1.83;0.60;;;;;;;;;;4937071;28;20043;-56
2021/05/05 09:29:37;;;;;;;2.40;0.88;;;;;;;;;;4933282;28;20039;-56
2021/05/05 09:32:03;;;;;;;2.28;0.88;;;;;;;;;;4943873;28;20046;-56
2021/05/05 09:34:28;;;;;;;2.30;0.80;;;;;;;;;;4945300;28;21930;-56
2021/05/05 09:36:56;;;;;;;3.22;0.80;;;;;;;;;;4946468;28;20039;-55
2021/05/05 09:39:32;;;;;;;2.65;0.80;;;;;;;;;;4946812;28;20307;-56
2021/05/05 09:41:58;;;;;;;2.20;0.70;;;;;;;;;;4944442;28;20046;-57
2021/05/05 09:44:25;;;;;;;2.45;0.70;;;;;;;;;;4945752;28;20058;-56
2021/05/05 09:46:53;;;;;;;2.60;0.80;;;;;;;;;;4946144;28;20043;-57
2021/05/05 09:49:22;;;;;;;4.40;0.82;;;;;;;;;;4945740;28;20459;-58
2021/05/05 09:51:55;;;;;;;2.22;0.70;;;;;;;;;;4946086;28;20054;-57
2021/05/05 09:54:28;;;;;;;2.55;0.80;;;;;;;;;;4946026;28;20046;-57
2021/05/05 09:56:54;;;;;;;2.92;0.80;;;;;;;;;;4946086;28;20046;-57
2021/05/05 09:59:22;;;;;;;3.15;0.98;;;;;;;;;;4943836;28;20047;-57
2021/05/05 10:02:06;;;;;;;2.13;0.73;;;;;;;;;;4951911;28;20051;-55
2021/05/05 10:04:32;;;;;;;4.82;0.90;;;;;;;;;;4944188;28;20051;-57
2021/05/05 10:07:01;;;;;;;3.75;1.02;;;;;;;;;;4943977;28;20050;-57
2021/05/05 10:09:27;;;;;;;4.47;0.90;;;;;;;;;;4943964;28;20072;-57
2021/05/05 10:11:54;;;;;;;2.65;0.80;;;;;;;;;;4942952;28;20055;-57
2021/05/05 10:14:21;;;;;;;2.42;0.70;;;;;;;;;;4945970;28;20171;-56
2021/05/05 10:16:48;;;;;;;1.77;0.68;;;;;;;;;;4953629;28;20050;-58
2021/05/05 10:19:14;;;;;;;2.05;0.65;;;;;;;;;;4946226;28;20043;-58
2021/05/05 10:21:42;;;;;;;2.25;0.75;;;;;;;;;;4946042;28;20097;-56
2021/05/05 10:24:09;;;;;;;2.67;1.00;;;;;;;;;;4944015;28;20109;-58
2021/05/05 10:26:35;;;;;;;3.15;0.65;;;;;;;;;;4944612;28;20509;-57
2021/05/05 10:29:00;;;;;;;1.90;0.63;;;;;;;;;;4944254;28;20046;-57
2021/05/05 10:31:28;;;;;;;2.13;0.73;;;;;;;;;;4945778;28;20457;-56
2021/05/05 10:33:58;;;;;;;3.85;0.82;;;;;;;;;;4945600;28;20105;-57
2021/05/05 10:36:40;;;;;;;2.17;0.77;;;;;;;;;;4943468;28;20074;-57
2021/05/05 10:39:12;;;;;;;2.40;0.70;;;;;;;;;;4943556;28;20051;-57
2021/05/05 10:41:41;;;;;;;2.40;0.60;;;;;;;;;;4942292;28;20032;-57
2021/05/05 10:44:07;;;;;;;1.63;0.55;;;;;;;;;;4943404;28;20052;-57
2021/05/05 10:46:34;;;;;;;1.90;0.60;;;;;;;;;;4944515;28;20050;-57
2021/05/05 10:49:07;;;;;;;1.77;0.60;;;;;;;;;;4944572;28;20039;-54
2021/05/05 10:51:45;;;;;;;1.48;0.43;;;;;;;;;;4944079;28;20040;-58
2021/05/05 10:54:15;;;;;;;3.20;0.65;;;;;;;;;;4944209;28;20051;-54
2021/05/05 10:56:43;;;;;;;2.45;0.70;;;;;;;;;;4944222;28;20074;-56
2021/05/05 10:59:11;;;;;;;3.45;0.60;;;;;;;;;;4943205;28;20439;-56
2021/05/05 11:01:37;;;;;;;1.77;0.52;;;;;;;;;;4943300;28;20126;-56
2021/05/05 11:04:03;;;;;;;4.47;0.60;;;;;;;;;;4944819;28;20051;-53
2021/05/05 11:06:29;;;;;;;1.83;0.60;;;;;;;;;;4943303;28;20648;-56
2021/05/05 11:09:16;;;;;;;2.05;0.63;;;;;;;;;;4942626;28;20142;-55
2021/05/05 11:11:43;;;;;;;1.85;0.60;;;;;;;;;;4934836;28;20099;-57
2021/05/05 11:14:09;;;;;;;2.15;0.60;;;;;;;;;;4940292;28;20031;-57
2021/05/05 11:17:00;;;;;;;3.00;0.70;;;;;;;;;;4941831;28;20042;-57
2021/05/05 11:19:40;;;;;;;2.38;0.60;;;;;;;;;;4943143;28;20186;-56
2021/05/05 11:22:06;;;;;;;2.92;0.80;;;;;;;;;;4946190;28;20035;-57
2021/05/05 11:24:33;;;;;;;4.00;0.57;;;;;;;;;;4943051;28;20184;-56
2021/05/05 11:27:00;;;;;;;1.90;0.50;;;;;;;;;;4942741;28;20449;-53
2021/05/05 11:29:46;;;;;;;1.77;0.60;;;;;;;;;;4944421;28;20496;-56
2021/05/05 11:32:16;;;;;;;1.52;0.52;;;;;;;;;;4943731;28;20094;-57
2021/05/05 11:34:46;;;;;;;3.42;0.80;;;;;;;;;;4947041;28;20536;-54
2021/05/05 11:37:19;;;;;;;2.50;0.68;;;;;;;;;;4941419;28;20607;-56
2021/05/05 11:39:46;;;;;;;3.05;0.70;;;;;;;;;;4951890;28;20046;-56
2021/05/05 11:42:13;;;;;;;2.03;0.70;;;;;;;;;;4958924;28;20069;-57
2021/05/05 11:44:46;;;;;;;4.53;1.10;;;;;;;;;;4960691;28;20050;-57
2021/05/05 11:47:14;;;;;;;4.60;0.80;;;;;;;;;;4959976;28;20043;-56
2021/05/05 11:49:48;;;;;;;4.13;0.80;;;;;;;;;;4960382;28;20039;-56
2021/05/05 11:52:19;;;;;;;2.72;0.70;;;;;;;;;;4958041;28;20050;-56
2021/05/05 11:54:47;;;;;;;2.60;0.73;;;;;;;;;;4960820;28;20065;-56
2021/05/05 11:57:14;;;;;;;1.92;0.55;;;;;;;;;;4959343;28;20054;-57
2021/05/05 11:59:39;;;;;;;2.40;0.57;;;;;;;;;;4958778;28;20046;-56
2021/05/05 12:02:06;;;;;;;2.03;0.60;;;;;;;;;;4951408;28;20463;-56
2021/05/05 12:04:42;;;;;;;2.13;0.60;;;;;;;;;;4941695;28;20102;-55
2021/05/05 12:07:11;;;;;;;2.03;0.60;;;;;;;;;;4943710;28;20504;-56
2021/05/05 12:09:38;;;;;;;2.35;0.60;;;;;;;;;;4941910;28;20066;-57
2021/05/05 12:12:13;;;;;;;3.75;0.60;;;;;;;;;;4958630;28;20036;-54
2021/05/05 12:14:40;;;;;;;3.88;0.70;;;;;;;;;;4938896;28;20036;-56
2021/05/05 12:17:15;;;;;;;2.67;0.68;;;;;;;;;;4943191;28;20046;-55
2021/05/05 12:19:51;;;;;;;1.50;0.50;;;;;;;;;;4945532;28;20050;-56
2021/05/05 12:22:16;;;;;;;5.22;0.80;;;;;;;;;;4942787;28;20054;-56
2021/05/05 12:25:02;;;;;;;2.03;0.60;;;;;;;;;;4942259;28;20039;-55
2021/05/05 12:27:28;;;;;;;2.65;0.70;;;;;;;;;;4946014;28;20409;-56
2021/05/05 12:30:00;;;;;;;4.05;0.70;;;;;;;;;;4947787;28;20047;-57
2021/05/05 12:32:44;;;;;;;1.80;0.60;;;;;;;;;;4945961;28;20044;-57
2021/05/05 12:35:11;;;;;;;5.13;0.80;;;;;;;;;;4947800;28;20146;-57
2021/05/05 12:37:37;;;;;;;7.07;0.82;;;;;;;;;;4955539;28;20042;-57
2021/05/05 12:40:04;;;;;;;5.03;0.80;;;;;;;;;;4949910;28;20100;-58
2021/05/05 12:42:34;;;;;;;3.13;0.75;;;;;;;;;;4946084;28;20047;-58
2021/05/05 12:45:05;;;;;;;4.63;0.90;;;;;;;;;;4947509;28;20048;-55
2021/05/05 12:47:31;;;;;;;5.25;0.88;;;;;;;;;;4944619;28;20405;-57
2021/05/05 12:49:59;;;;;;;5.10;1.00;;;;;;;;;;4956963;28;20039;-57
2021/05/05 12:52:35;;;;;;;5.72;2.40;;;;;;;;;;4956351;28;20229;-57
2021/05/05 12:55:21;;;;;;;3.88;0.90;;;;;;;;;;4948466;28;20042;-57
2021/05/05 12:58:25;;;;;;;4.15;1.20;;;;;;;;;;4943618;28;20047;-58
2021/05/05 13:00:52;;;;;;;5.75;0.90;;;;;;;;;;4907572;29;20392;-58
2021/05/05 13:03:19;;;;;;;4.05;0.82;;;;;;;;;;4905864;28;20494;-56
2021/05/05 13:05:54;;;;;;;5.85;0.82;;;;;;;;;;4933827;28;20920;-57
2021/05/05 13:08:28;;;;;;;5.43;0.80;;;;;;;;;;4961212;28;20051;-58
2021/05/05 13:10:54;;;;;;;4.72;0.90;;;;;;;;;;4966631;28;20047;-56
2021/05/05 13:13:25;;;;;;;3.47;1.00;;;;;;;;;;4964313;28;20130;-58
2021/05/05 13:19:04;;;;;;;6.00;0.85;;;;;;;;;;4963114;28;21472;-55
2021/05/05 13:30:13;;;;;;;5.45;0.80;;;;;;;;;;4964271;28;20131;-57
2021/05/05 13:32:40;;;;;;;7.60;1.80;;;;;;;;;;4962092;28;20046;-58
2021/05/05 13:35:25;;;;;;;3.60;1.10;;;;;;;;;;4963681;28;20051;-57
2021/05/05 13:37:54;;;;;;;2.70;1.00;;;;;;;;;;4954782;28;20121;-56
2021/05/05 13:40:20;;;;;;;5.05;1.08;;;;;;;;;;4962483;28;20161;-59
2021/05/05 13:42:46;;;;;;;3.97;1.20;;;;;;;;;;4963982;28;20035;-54
2021/05/05 13:45:13;;;;;;;5.35;1.10;;;;;;;;;;4966526;28;20155;-57
2021/05/05 13:47:53;;;;;;;6.25;1.00;;;;;;;;;;4965951;28;20038;-57
2021/05/05 13:50:19;;;;;;;5.25;1.20;;;;;;;;;;4962662;28;21134;-54
2021/05/05 13:52:46;;;;;;;4.70;1.20;;;;;;;;;;4963212;28;20038;-55
2021/05/05 13:55:12;;;;;;;4.57;1.08;;;;;;;;;;4965251;28;20035;-59
2021/05/05 13:57:38;;;;;;;2.45;0.80;;;;;;;;;;4960253;28;20055;-58
2021/05/05 14:00:06;;;;;;;5.78;1.20;;;;;;;;;;4962877;28;20045;-58
2021/05/05 14:02:32;;;;;;;5.18;1.08;;;;;;;;;;4960114;28;20508;-58
2021/05/05 14:04:58;;;;;;;4.95;0.85;;;;;;;;;;4963981;28;20065;-58
2021/05/05 14:07:25;;;;;;;3.35;0.88;;;;;;;;;;4961194;28;20030;-57
2021/05/05 14:09:50;;;;;;;5.85;0.80;;;;;;;;;;4964729;28;20338;-59
2021/05/05 14:12:16;;;;;;;3.05;1.10;;;;;;;;;;4929049;28;20126;-56
2021/05/05 14:14:42;;;;;;;2.50;0.70;;;;;;;;;;4957428;28;20103;-58
2021/05/05 14:17:08;;;;;;;2.95;0.90;;;;;;;;;;4947920;28;20157;-58
2021/05/05 14:19:34;;;;;;;3.60;0.80;;;;;;;;;;4949203;28;20045;-58
2021/05/05 14:22:00;;;;;;;5.72;1.05;;;;;;;;;;4949307;28;20062;-58
2021/05/05 14:24:26;;;;;;;2.40;0.70;;;;;;;;;;4947574;28;20050;-56
2021/05/05 14:26:52;;;;;;;6.18;0.80;;;;;;;;;;4945423;28;20050;-58
2021/05/05 14:29:20;;;;;;;1.98;0.60;;;;;;;;;;4944759;28;20263;-57
2021/05/05 14:31:46;;;;;;;2.35;0.70;;;;;;;;;;4946413;28;20079;-58
2021/05/05 14:34:11;;;;;;;3.33;0.68;;;;;;;;;;4949134;28;20051;-57
2021/05/05 14:36:37;;;;;;;2.83;0.60;;;;;;;;;;4946501;28;20050;-58
2021/05/05 14:39:05;;;;;;;3.42;0.63;;;;;;;;;;4940968;28;20094;-58
2021/05/05 14:41:32;;;;;;;1.80;0.50;;;;;;;;;;4945436;28;20101;-58
2021/05/05 14:49:05;;;;;;;1.27;0.50;;;;;;;;;;4948543;28;20047;-59
2021/05/05 14:51:31;;;;;;;2.13;0.60;;;;;;;;;;4939457;28;20039;-59
2021/05/05 14:53:57;;;;;;;2.80;0.50;;;;;;;;;;4921534;28;20039;-59
2021/05/05 14:56:23;;;;;;;2.60;0.68;;;;;;;;;;4940506;28;20516;-59
2021/05/05 14:58:57;;;;;;;3.47;0.70;;;;;;;;;;4945181;28;20371;-58
2021/05/05 15:01:23;;;;;;;2.95;0.60;;;;;;;;;;4938235;28;21977;-59
2021/05/05 15:03:49;;;;;;;1.48;0.60;;;;;;;;;;4932984;28;20044;-59
2021/05/05 15:06:20;;;;;;;2.10;0.68;;;;;;;;;;4930578;28;20051;-55
2021/05/05 15:30:07;;;;;;;1.17;0.43;;;;;;;;;;4964916;28;20062;-59
2021/05/05 15:36:20;;;;;;;1.25;0.50;;;;;;;;;;4963612;28;20054;-59
2021/05/05 15:43:56;;;;;;;1.35;0.50;;;;;;;;;;4923537;28;20075;-59
2021/05/05 15:46:24;;;;;;;2.80;0.43;;;;;;;;;;4944441;28;20046;-58
2021/05/05 15:48:50;;;;;;;2.35;0.60;;;;;;;;;;4940360;28;20057;-59